DEMNG SADF-SBPA
Flight info
| Callsign | DEMNG |
|---|---|
| Flight time | 3h 14m |
| Altitude | 7000 |
| Route | PAPIX A314 AKPIG DCT TOGEK |
| Aircraft | PA24/L-SDGRY/S |
Departure
| Time | 2026-04-24 11:42 |
|---|---|
| Airport | San Fernando Airport (SADF) |
Arrival
| Time | 2026-04-24 14:56 |
|---|---|
| Airport | Porto Alegre-Salgado Filho International Airport (SBPA) |
| Time | Latitude | Longitude | Altitude | Speed | Heading |
|---|---|---|---|---|---|
| 2026-04-24 11:35 | -34.45869 | -58.59151 | 13 ft | 0 kts | 325° |
| 2026-04-24 11:39 | -34.45866 | -58.59157 | 13 ft | 2 kts | 269° |
| 2026-04-24 11:39 | -34.45861 | -58.59175 | 13 ft | 4 kts | 331° |
| 2026-04-24 11:39 | -34.45829 | -58.59198 | 13 ft | 5 kts | 329° |
| 2026-04-24 11:40 | -34.45814 | -58.59209 | 13 ft | 0 kts | 327° |
| 2026-04-24 11:40 | -34.45811 | -58.59211 | 13 ft | 4 kts | 327° |
| 2026-04-24 11:40 | -34.45743 | -58.59261 | 13 ft | 17 kts | 328° |
| 2026-04-24 11:41 | -34.45658 | -58.59317 | 13 ft | 11 kts | 9° |
| 2026-04-24 11:41 | -34.45534 | -58.59184 | 13 ft | 57 kts | 44° |
| 2026-04-24 11:41 | -34.45143 | -58.58735 | 123 ft | 87 kts | 40° |
| 2026-04-24 11:41 | -34.44697 | -58.58223 | 442 ft | 87 kts | 43° |
| 2026-04-24 11:42 | -34.44317 | -58.57608 | 720 ft | 94 kts | 66° |
| 2026-04-24 11:42 | -34.44287 | -58.56837 | 1019 ft | 95 kts | 103° |
| 2026-04-24 11:42 | -34.44581 | -58.56065 | 1150 ft | 109 kts | 114° |
| 2026-04-24 11:42 | -34.44862 | -58.55248 | 1345 ft | 103 kts | 104° |
| 2026-04-24 11:43 | -34.45017 | -58.54428 | 1546 ft | 97 kts | 94° |
| 2026-04-24 11:43 | -34.45073 | -58.53633 | 1728 ft | 96 kts | 87° |
| 2026-04-24 11:43 | -34.45075 | -58.52826 | 1891 ft | 95 kts | 83° |
| 2026-04-24 11:43 | -34.45048 | -58.52028 | 2061 ft | 95 kts | 81° |
| 2026-04-24 11:44 | -34.45003 | -58.51227 | 2220 ft | 95 kts | 80° |
| 2026-04-24 11:44 | -34.44953 | -58.50428 | 2396 ft | 96 kts | 79° |
| 2026-04-24 11:44 | -34.44892 | -58.49675 | 2693 ft | 89 kts | 78° |
| 2026-04-24 11:44 | -34.44827 | -58.48889 | 2882 ft | 94 kts | 79° |
| 2026-04-24 11:45 | -34.44781 | -58.48127 | 3143 ft | 92 kts | 79° |
| 2026-04-24 11:45 | -34.44731 | -58.47335 | 3369 ft | 92 kts | 81° |
| 2026-04-24 11:45 | -34.44688 | -58.46567 | 3594 ft | 94 kts | 81° |
| 2026-04-24 11:45 | -34.44643 | -58.45771 | 3833 ft | 93 kts | 81° |
| 2026-04-24 11:46 | -34.44593 | -58.44985 | 4039 ft | 96 kts | 81° |
| 2026-04-24 11:46 | -34.44542 | -58.44180 | 4285 ft | 94 kts | 81° |
| 2026-04-24 11:46 | -34.44490 | -58.43373 | 4485 ft | 98 kts | 82° |
| 2026-04-24 11:46 | -34.44440 | -58.42555 | 4728 ft | 96 kts | 82° |
| 2026-04-24 11:47 | -34.44386 | -58.41730 | 4924 ft | 100 kts | 82° |
| 2026-04-24 11:47 | -34.44334 | -58.40901 | 5158 ft | 98 kts | 82° |
| 2026-04-24 11:47 | -34.44278 | -58.40077 | 5401 ft | 97 kts | 81° |
| 2026-04-24 11:47 | -34.44221 | -58.39257 | 5628 ft | 98 kts | 81° |
| 2026-04-24 11:48 | -34.44169 | -58.38432 | 5868 ft | 98 kts | 82° |
| 2026-04-24 11:48 | -34.44117 | -58.37607 | 6088 ft | 99 kts | 81° |
| 2026-04-24 11:48 | -34.44067 | -58.36791 | 6323 ft | 98 kts | 81° |
| 2026-04-24 11:48 | -34.44014 | -58.35961 | 6544 ft | 99 kts | 81° |
| 2026-04-24 11:49 | -34.43960 | -58.35131 | 6759 ft | 99 kts | 81° |
| 2026-04-24 11:49 | -34.43906 | -58.34296 | 6961 ft | 100 kts | 81° |
| 2026-04-24 11:49 | -34.43851 | -58.33460 | 7169 ft | 100 kts | 81° |
| 2026-04-24 11:49 | -34.43802 | -58.32626 | 7172 ft | 104 kts | 84° |
| 2026-04-24 11:50 | -34.43764 | -58.31679 | 7085 ft | 109 kts | 83° |
| 2026-04-24 11:50 | -34.43711 | -58.30768 | 7075 ft | 110 kts | 82° |
| 2026-04-24 11:50 | -34.43644 | -58.29849 | 7074 ft | 109 kts | 81° |
| 2026-04-24 11:50 | -34.43573 | -58.28936 | 7070 ft | 109 kts | 81° |
| 2026-04-24 11:51 | -34.43504 | -58.28026 | 7068 ft | 108 kts | 81° |
| 2026-04-24 11:51 | -34.43438 | -58.27121 | 7067 ft | 108 kts | 82° |
| 2026-04-24 11:51 | -34.43374 | -58.26217 | 7066 ft | 107 kts | 82° |
| 2026-04-24 11:51 | -34.43312 | -58.25317 | 7067 ft | 107 kts | 82° |
| 2026-04-24 11:52 | -34.43251 | -58.24430 | 7067 ft | 107 kts | 82° |
| 2026-04-24 11:52 | -34.43192 | -58.23534 | 7068 ft | 106 kts | 82° |
| 2026-04-24 11:52 | -34.43133 | -58.22641 | 7069 ft | 106 kts | 82° |
| 2026-04-24 11:52 | -34.43072 | -58.21752 | 7070 ft | 106 kts | 82° |
| 2026-04-24 11:53 | -34.43015 | -58.20862 | 7070 ft | 106 kts | 82° |
| 2026-04-24 11:53 | -34.42956 | -58.19976 | 7065 ft | 105 kts | 82° |
| 2026-04-24 11:53 | -34.42896 | -58.19098 | 7070 ft | 104 kts | 82° |
| 2026-04-24 11:53 | -34.42837 | -58.18224 | 7071 ft | 104 kts | 82° |
| 2026-04-24 11:54 | -34.42778 | -58.17346 | 7087 ft | 108 kts | 81° |
| 2026-04-24 11:54 | -34.42699 | -58.16367 | 7098 ft | 127 kts | 82° |
| 2026-04-24 11:54 | -34.42621 | -58.15225 | 7056 ft | 143 kts | 83° |
| 2026-04-24 11:54 | -34.42549 | -58.13987 | 7067 ft | 150 kts | 83° |
| 2026-04-24 11:55 | -34.42471 | -58.12705 | 7075 ft | 155 kts | 83° |
| 2026-04-24 11:55 | -34.42386 | -58.11387 | 7078 ft | 158 kts | 83° |
| 2026-04-24 11:55 | -34.42295 | -58.10051 | 7073 ft | 160 kts | 83° |
| 2026-04-24 11:55 | -34.42202 | -58.08704 | 7082 ft | 161 kts | 83° |
| 2026-04-24 11:56 | -34.42111 | -58.07350 | 7081 ft | 162 kts | 83° |
| 2026-04-24 11:56 | -34.42018 | -58.05990 | 7079 ft | 162 kts | 83° |
| 2026-04-24 11:56 | -34.41923 | -58.04624 | 7078 ft | 163 kts | 83° |
| 2026-04-24 11:56 | -34.41832 | -58.03257 | 7079 ft | 163 kts | 83° |
| 2026-04-24 11:57 | -34.41738 | -58.01886 | 7080 ft | 163 kts | 83° |
| 2026-04-24 11:57 | -34.41626 | -58.00520 | 7079 ft | 163 kts | 77° |
| 2026-04-24 11:57 | -34.41119 | -57.99333 | 7069 ft | 162 kts | 46° |
| 2026-04-24 11:57 | -34.40370 | -57.98336 | 7083 ft | 160 kts | 48° |
| 2026-04-24 11:58 | -34.39667 | -57.97289 | 7078 ft | 160 kts | 50° |
| 2026-04-24 11:58 | -34.38969 | -57.96241 | 7078 ft | 160 kts | 49° |
| 2026-04-24 11:58 | -34.38265 | -57.95198 | 7078 ft | 160 kts | 49° |
| 2026-04-24 11:58 | -34.37555 | -57.94159 | 7078 ft | 160 kts | 49° |
| 2026-04-24 11:59 | -34.36843 | -57.93124 | 7078 ft | 160 kts | 49° |
| 2026-04-24 11:59 | -34.36129 | -57.92089 | 7077 ft | 160 kts | 48° |
| 2026-04-24 11:59 | -34.35416 | -57.91059 | 7081 ft | 160 kts | 49° |
| 2026-04-24 11:59 | -34.34701 | -57.90026 | 7081 ft | 160 kts | 48° |
| 2026-04-24 12:00 | -34.33983 | -57.88992 | 7082 ft | 160 kts | 49° |
| 2026-04-24 12:00 | -34.33271 | -57.87960 | 7083 ft | 160 kts | 49° |
| 2026-04-24 12:00 | -34.32558 | -57.86924 | 7082 ft | 160 kts | 49° |
| 2026-04-24 12:00 | -34.31843 | -57.85893 | 7084 ft | 160 kts | 48° |
| 2026-04-24 12:01 | -34.31129 | -57.84860 | 7082 ft | 160 kts | 49° |
| 2026-04-24 12:01 | -34.30414 | -57.83822 | 7081 ft | 160 kts | 49° |
| 2026-04-24 12:01 | -34.29698 | -57.82786 | 7080 ft | 160 kts | 49° |
| 2026-04-24 12:01 | -34.28981 | -57.81753 | 7081 ft | 160 kts | 48° |
| 2026-04-24 12:02 | -34.28266 | -57.80723 | 7080 ft | 160 kts | 49° |
| 2026-04-24 12:02 | -34.27553 | -57.79691 | 7080 ft | 160 kts | 49° |
| 2026-04-24 12:02 | -34.26838 | -57.78659 | 7083 ft | 160 kts | 49° |
| 2026-04-24 12:02 | -34.26124 | -57.77628 | 7084 ft | 160 kts | 48° |
| 2026-04-24 12:03 | -34.25409 | -57.76601 | 7083 ft | 160 kts | 48° |
| 2026-04-24 12:03 | -34.24702 | -57.75585 | 7083 ft | 160 kts | 49° |
| 2026-04-24 12:03 | -34.23988 | -57.74554 | 7083 ft | 160 kts | 49° |
| 2026-04-24 12:03 | -34.23274 | -57.73523 | 7083 ft | 160 kts | 49° |
| 2026-04-24 12:04 | -34.22561 | -57.72492 | 7083 ft | 160 kts | 49° |
| 2026-04-24 12:04 | -34.21845 | -57.71463 | 7083 ft | 160 kts | 48° |
| 2026-04-24 12:04 | -34.21131 | -57.70436 | 7089 ft | 160 kts | 49° |
| 2026-04-24 12:04 | -34.20415 | -57.69407 | 7089 ft | 160 kts | 48° |
| 2026-04-24 12:05 | -34.19700 | -57.68377 | 7089 ft | 160 kts | 49° |
| 2026-04-24 12:05 | -34.18984 | -57.67347 | 7089 ft | 160 kts | 49° |
| 2026-04-24 12:05 | -34.18268 | -57.66316 | 7088 ft | 160 kts | 49° |
| 2026-04-24 12:05 | -34.17555 | -57.65286 | 7088 ft | 160 kts | 49° |
| 2026-04-24 12:06 | -34.16839 | -57.64262 | 7088 ft | 159 kts | 49° |
| 2026-04-24 12:06 | -34.16366 | -57.63585 | 7089 ft | 159 kts | 49° |
| 2026-04-24 12:06 | -34.15648 | -57.62558 | 7089 ft | 160 kts | 49° |
| 2026-04-24 12:06 | -34.14934 | -57.61530 | 7089 ft | 160 kts | 49° |
| 2026-04-24 12:07 | -34.14222 | -57.60501 | 7086 ft | 160 kts | 49° |
| 2026-04-24 12:07 | -34.13277 | -57.59140 | 7091 ft | 160 kts | 49° |
| 2026-04-24 12:07 | -34.12794 | -57.58448 | 7092 ft | 160 kts | 49° |
| 2026-04-24 12:07 | -34.12076 | -57.57422 | 7092 ft | 160 kts | 49° |
| 2026-04-24 12:08 | -34.11359 | -57.56397 | 7092 ft | 160 kts | 49° |
| 2026-04-24 12:08 | -34.10642 | -57.55369 | 7092 ft | 160 kts | 49° |
| 2026-04-24 12:08 | -34.09927 | -57.54342 | 7091 ft | 160 kts | 49° |
| 2026-04-24 12:08 | -34.09209 | -57.53315 | 7091 ft | 160 kts | 49° |
| 2026-04-24 12:09 | -34.08490 | -57.52286 | 7092 ft | 160 kts | 49° |
| 2026-04-24 12:09 | -34.07784 | -57.51272 | 7090 ft | 160 kts | 49° |
| 2026-04-24 12:09 | -34.07070 | -57.50244 | 7091 ft | 160 kts | 49° |
| 2026-04-24 12:09 | -34.06358 | -57.49220 | 7092 ft | 159 kts | 49° |
| 2026-04-24 12:10 | -34.05642 | -57.48198 | 7091 ft | 159 kts | 49° |
| 2026-04-24 12:10 | -34.04927 | -57.47177 | 7091 ft | 160 kts | 49° |
| 2026-04-24 12:10 | -34.04211 | -57.46152 | 7092 ft | 160 kts | 49° |
| 2026-04-24 12:11 | -34.02777 | -57.44106 | 7091 ft | 160 kts | 49° |
| 2026-04-24 12:11 | -34.02063 | -57.43081 | 7092 ft | 160 kts | 49° |
| 2026-04-24 12:11 | -34.01343 | -57.42059 | 7091 ft | 160 kts | 48° |
| 2026-04-24 12:11 | -34.00625 | -57.41040 | 7091 ft | 160 kts | 48° |
| 2026-04-24 12:12 | -33.99910 | -57.40015 | 7092 ft | 160 kts | 49° |
| 2026-04-24 12:12 | -33.98950 | -57.38642 | 7092 ft | 160 kts | 48° |
| 2026-04-24 12:12 | -33.98474 | -57.37965 | 7091 ft | 160 kts | 49° |
| 2026-04-24 12:12 | -33.97754 | -57.36939 | 7095 ft | 160 kts | 49° |
| 2026-04-24 12:13 | -33.97033 | -57.35914 | 7093 ft | 161 kts | 49° |
| 2026-04-24 12:13 | -33.96313 | -57.34887 | 7090 ft | 161 kts | 49° |
| 2026-04-24 12:13 | -33.95593 | -57.33860 | 7093 ft | 160 kts | 49° |
| 2026-04-24 12:13 | -33.94875 | -57.32833 | 7094 ft | 160 kts | 49° |
| 2026-04-24 12:14 | -33.94155 | -57.31805 | 7096 ft | 161 kts | 49° |
| 2026-04-24 12:14 | -33.93432 | -57.30776 | 7094 ft | 161 kts | 49° |
| 2026-04-24 12:14 | -33.92712 | -57.29749 | 7094 ft | 160 kts | 49° |
| 2026-04-24 12:14 | -33.91988 | -57.28723 | 7094 ft | 161 kts | 49° |
| 2026-04-24 12:15 | -33.91263 | -57.27699 | 7095 ft | 161 kts | 49° |
| 2026-04-24 12:15 | -33.90548 | -57.26689 | 7099 ft | 160 kts | 49° |
| 2026-04-24 12:15 | -33.89824 | -57.25665 | 7099 ft | 160 kts | 49° |
| 2026-04-24 12:15 | -33.89104 | -57.24639 | 7099 ft | 160 kts | 49° |
| 2026-04-24 12:16 | -33.88386 | -57.23612 | 7100 ft | 160 kts | 49° |
| 2026-04-24 12:16 | -33.87663 | -57.22587 | 7099 ft | 161 kts | 49° |
| 2026-04-24 12:16 | -33.86942 | -57.21561 | 7099 ft | 161 kts | 49° |
| 2026-04-24 12:16 | -33.86218 | -57.20533 | 7100 ft | 161 kts | 49° |
| 2026-04-24 12:17 | -33.85492 | -57.19511 | 7099 ft | 161 kts | 49° |
| 2026-04-24 12:17 | -33.84768 | -57.18487 | 7099 ft | 161 kts | 49° |
| 2026-04-24 12:17 | -33.84043 | -57.17460 | 7099 ft | 161 kts | 49° |
| 2026-04-24 12:17 | -33.83322 | -57.16433 | 7099 ft | 161 kts | 49° |
| 2026-04-24 12:18 | -33.82600 | -57.15405 | 7102 ft | 161 kts | 49° |
| 2026-04-24 12:18 | -33.81877 | -57.14383 | 7101 ft | 161 kts | 48° |
| 2026-04-24 12:18 | -33.81150 | -57.13361 | 7101 ft | 161 kts | 49° |
| 2026-04-24 12:18 | -33.80427 | -57.12340 | 7099 ft | 160 kts | 49° |
| 2026-04-24 12:19 | -33.79706 | -57.11317 | 7100 ft | 160 kts | 49° |
| 2026-04-24 12:19 | -33.78988 | -57.10309 | 7099 ft | 161 kts | 49° |
| 2026-04-24 12:19 | -33.78260 | -57.09281 | 7100 ft | 161 kts | 49° |
| 2026-04-24 12:19 | -33.77533 | -57.08255 | 7099 ft | 161 kts | 49° |
| 2026-04-24 12:20 | -33.76805 | -57.07232 | 7099 ft | 161 kts | 49° |
| 2026-04-24 12:20 | -33.76078 | -57.06206 | 7099 ft | 161 kts | 49° |
| 2026-04-24 12:20 | -33.75355 | -57.05178 | 7102 ft | 161 kts | 49° |
| 2026-04-24 12:20 | -33.74628 | -57.04152 | 7102 ft | 161 kts | 49° |
| 2026-04-24 12:21 | -33.73902 | -57.03128 | 7102 ft | 161 kts | 49° |
| 2026-04-24 12:21 | -33.73178 | -57.02102 | 7102 ft | 161 kts | 49° |
| 2026-04-24 12:21 | -33.72452 | -57.01080 | 7102 ft | 161 kts | 49° |
| 2026-04-24 12:21 | -33.71726 | -57.00055 | 7102 ft | 161 kts | 49° |
| 2026-04-24 12:22 | -33.71000 | -56.99033 | 7100 ft | 161 kts | 49° |
| 2026-04-24 12:22 | -33.70272 | -56.98012 | 7102 ft | 161 kts | 49° |
| 2026-04-24 12:22 | -33.69546 | -56.96987 | 7102 ft | 161 kts | 49° |
| 2026-04-24 12:22 | -33.68828 | -56.95977 | 7102 ft | 161 kts | 49° |
| 2026-04-24 12:23 | -33.68102 | -56.94957 | 7104 ft | 161 kts | 49° |
| 2026-04-24 12:23 | -33.67375 | -56.93938 | 7097 ft | 161 kts | 49° |
| 2026-04-24 12:23 | -33.66646 | -56.92915 | 7097 ft | 161 kts | 49° |
| 2026-04-24 12:23 | -33.65922 | -56.91893 | 7097 ft | 161 kts | 49° |
| 2026-04-24 12:24 | -33.65192 | -56.90868 | 7095 ft | 161 kts | 49° |
| 2026-04-24 12:24 | -33.64463 | -56.89844 | 7096 ft | 161 kts | 49° |
| 2026-04-24 12:24 | -33.63733 | -56.88820 | 7097 ft | 161 kts | 49° |
| 2026-04-24 12:24 | -33.63003 | -56.87798 | 7097 ft | 161 kts | 49° |
| 2026-04-24 12:25 | -33.62278 | -56.86775 | 7098 ft | 161 kts | 49° |
| 2026-04-24 12:25 | -33.61549 | -56.85752 | 7097 ft | 161 kts | 49° |
| 2026-04-24 12:25 | -33.60821 | -56.84732 | 7097 ft | 161 kts | 49° |
| 2026-04-24 12:25 | -33.60095 | -56.83711 | 7097 ft | 161 kts | 49° |
| 2026-04-24 12:26 | -33.59368 | -56.82696 | 7095 ft | 160 kts | 49° |
| 2026-04-24 12:26 | -33.58642 | -56.81679 | 7096 ft | 160 kts | 49° |
| 2026-04-24 12:26 | -33.57914 | -56.80663 | 7095 ft | 161 kts | 49° |
| 2026-04-24 12:26 | -33.57178 | -56.79660 | 7094 ft | 160 kts | 49° |
| 2026-04-24 12:27 | -33.56450 | -56.78650 | 7093 ft | 159 kts | 50° |
| 2026-04-24 12:27 | -33.55733 | -56.77641 | 7090 ft | 159 kts | 50° |
| 2026-04-24 12:27 | -33.55020 | -56.76626 | 7089 ft | 159 kts | 50° |
| 2026-04-24 12:27 | -33.54307 | -56.75606 | 7088 ft | 160 kts | 50° |
| 2026-04-24 12:28 | -33.53580 | -56.74596 | 7085 ft | 159 kts | 49° |
| 2026-04-24 12:28 | -33.52853 | -56.73595 | 7084 ft | 159 kts | 49° |
| 2026-04-24 12:28 | -33.52137 | -56.72588 | 7084 ft | 159 kts | 49° |
| 2026-04-24 12:28 | -33.51426 | -56.71596 | 7083 ft | 159 kts | 49° |
| 2026-04-24 12:29 | -33.50697 | -56.70593 | 7083 ft | 160 kts | 49° |
| 2026-04-24 12:29 | -33.49973 | -56.69580 | 7077 ft | 159 kts | 50° |
| 2026-04-24 12:29 | -33.49256 | -56.68566 | 7076 ft | 159 kts | 49° |
| 2026-04-24 12:29 | -33.48541 | -56.67557 | 7075 ft | 159 kts | 50° |
| 2026-04-24 12:30 | -33.47820 | -56.66551 | 7073 ft | 159 kts | 49° |
| 2026-04-24 12:30 | -33.47100 | -56.65543 | 7073 ft | 159 kts | 50° |
| 2026-04-24 12:30 | -33.46378 | -56.64538 | 7073 ft | 159 kts | 49° |
| 2026-04-24 12:30 | -33.45650 | -56.63534 | 7072 ft | 159 kts | 49° |
| 2026-04-24 12:31 | -33.44929 | -56.62529 | 7070 ft | 159 kts | 49° |
| 2026-04-24 12:31 | -33.44206 | -56.61526 | 7069 ft | 159 kts | 49° |
| 2026-04-24 12:31 | -33.43480 | -56.60523 | 7067 ft | 160 kts | 49° |
| 2026-04-24 12:31 | -33.42757 | -56.59516 | 7066 ft | 159 kts | 50° |
| 2026-04-24 12:32 | -33.42039 | -56.58507 | 7066 ft | 159 kts | 49° |
| 2026-04-24 12:32 | -33.41318 | -56.57506 | 7061 ft | 159 kts | 49° |
| 2026-04-24 12:32 | -33.40587 | -56.56509 | 7064 ft | 159 kts | 49° |
| 2026-04-24 12:32 | -33.39865 | -56.55502 | 7064 ft | 160 kts | 50° |
| 2026-04-24 12:33 | -33.39147 | -56.54486 | 7066 ft | 159 kts | 50° |
| 2026-04-24 12:33 | -33.38419 | -56.53482 | 7064 ft | 159 kts | 49° |
| 2026-04-24 12:33 | -33.37697 | -56.52486 | 7064 ft | 159 kts | 50° |
| 2026-04-24 12:33 | -33.36977 | -56.51483 | 7064 ft | 159 kts | 50° |
| 2026-04-24 12:34 | -33.36260 | -56.50472 | 7063 ft | 159 kts | 49° |
| 2026-04-24 12:34 | -33.35532 | -56.49474 | 7064 ft | 159 kts | 49° |
| 2026-04-24 12:34 | -33.34798 | -56.48483 | 7064 ft | 159 kts | 47° |
| 2026-04-24 12:34 | -33.34035 | -56.47533 | 7064 ft | 159 kts | 46° |
| 2026-04-24 12:35 | -33.33263 | -56.46583 | 7065 ft | 159 kts | 46° |
| 2026-04-24 12:35 | -33.32489 | -56.45629 | 7064 ft | 160 kts | 46° |
| 2026-04-24 12:35 | -33.31723 | -56.44671 | 7064 ft | 159 kts | 47° |
| 2026-04-24 12:35 | -33.30962 | -56.43734 | 7064 ft | 159 kts | 46° |
| 2026-04-24 12:36 | -33.30196 | -56.42783 | 7062 ft | 158 kts | 47° |
| 2026-04-24 12:36 | -33.29428 | -56.41833 | 7063 ft | 159 kts | 46° |
| 2026-04-24 12:36 | -33.28664 | -56.40874 | 7065 ft | 160 kts | 47° |
| 2026-04-24 12:36 | -33.27903 | -56.39907 | 7066 ft | 159 kts | 47° |
| 2026-04-24 12:37 | -33.27141 | -56.38949 | 7070 ft | 159 kts | 47° |
| 2026-04-24 12:37 | -33.26381 | -56.37997 | 7069 ft | 159 kts | 47° |
| 2026-04-24 12:37 | -33.25614 | -56.37043 | 7069 ft | 159 kts | 46° |
| 2026-04-24 12:37 | -33.24850 | -56.36083 | 7071 ft | 160 kts | 47° |
| 2026-04-24 12:38 | -33.24082 | -56.35129 | 7070 ft | 159 kts | 46° |
| 2026-04-24 12:38 | -33.23303 | -56.34189 | 7072 ft | 159 kts | 46° |
| 2026-04-24 12:38 | -33.22541 | -56.33242 | 7074 ft | 158 kts | 47° |
| 2026-04-24 12:39 | -33.20259 | -56.30350 | 7080 ft | 159 kts | 47° |
| 2026-04-24 12:39 | -33.19488 | -56.29395 | 7079 ft | 159 kts | 47° |
| 2026-04-24 12:39 | -33.18722 | -56.28441 | 7079 ft | 159 kts | 47° |
| 2026-04-24 12:40 | -33.17952 | -56.27491 | 7079 ft | 159 kts | 48° |
| 2026-04-24 12:40 | -33.17192 | -56.26531 | 7081 ft | 159 kts | 48° |
| 2026-04-24 12:40 | -33.16428 | -56.25578 | 7083 ft | 159 kts | 47° |
| 2026-04-24 12:40 | -33.15665 | -56.24623 | 7092 ft | 158 kts | 48° |
| 2026-04-24 12:41 | -33.14905 | -56.23675 | 7092 ft | 158 kts | 47° |
| 2026-04-24 12:41 | -33.14138 | -56.22731 | 7091 ft | 158 kts | 47° |
| 2026-04-24 12:41 | -33.13383 | -56.21793 | 7091 ft | 159 kts | 47° |
| 2026-04-24 12:41 | -33.12608 | -56.20825 | 7091 ft | 159 kts | 47° |
| 2026-04-24 12:42 | -33.11854 | -56.19884 | 7090 ft | 159 kts | 47° |
| 2026-04-24 12:42 | -33.11091 | -56.18934 | 7091 ft | 159 kts | 47° |
| 2026-04-24 12:42 | -33.10325 | -56.17981 | 7091 ft | 159 kts | 47° |
| 2026-04-24 12:42 | -33.09563 | -56.17019 | 7091 ft | 160 kts | 47° |
| 2026-04-24 12:43 | -33.08794 | -56.16072 | 7092 ft | 158 kts | 47° |
| 2026-04-24 12:43 | -33.08025 | -56.15131 | 7092 ft | 159 kts | 47° |
| 2026-04-24 12:43 | -33.07258 | -56.14181 | 7092 ft | 159 kts | 47° |
| 2026-04-24 12:43 | -33.06496 | -56.13225 | 7091 ft | 159 kts | 47° |
| 2026-04-24 12:44 | -33.05731 | -56.12266 | 7087 ft | 160 kts | 47° |
| 2026-04-24 12:44 | -33.04963 | -56.11310 | 7088 ft | 159 kts | 47° |
| 2026-04-24 12:44 | -33.04196 | -56.10361 | 7088 ft | 158 kts | 48° |
| 2026-04-24 12:44 | -33.03436 | -56.09415 | 7088 ft | 158 kts | 47° |
| 2026-04-24 12:45 | -33.02673 | -56.08470 | 7089 ft | 158 kts | 48° |
| 2026-04-24 12:45 | -33.01914 | -56.07512 | 7089 ft | 158 kts | 47° |
| 2026-04-24 12:45 | -33.01147 | -56.06568 | 7088 ft | 158 kts | 47° |
| 2026-04-24 12:45 | -33.00376 | -56.05631 | 7089 ft | 158 kts | 47° |
| 2026-04-24 12:46 | -32.99626 | -56.04683 | 7087 ft | 158 kts | 48° |
| 2026-04-24 12:46 | -32.98862 | -56.03740 | 7089 ft | 158 kts | 47° |
| 2026-04-24 12:46 | -32.98099 | -56.02791 | 7088 ft | 159 kts | 47° |
| 2026-04-24 12:46 | -32.97331 | -56.01844 | 7089 ft | 158 kts | 47° |
| 2026-04-24 12:47 | -32.96558 | -56.00908 | 7089 ft | 159 kts | 47° |
| 2026-04-24 12:47 | -32.95793 | -55.99963 | 7088 ft | 158 kts | 48° |
| 2026-04-24 12:47 | -32.95036 | -55.99008 | 7088 ft | 158 kts | 48° |
| 2026-04-24 12:47 | -32.94277 | -55.98056 | 7088 ft | 159 kts | 47° |
| 2026-04-24 12:48 | -32.93510 | -55.97112 | 7089 ft | 158 kts | 47° |
| 2026-04-24 12:48 | -32.92753 | -55.96185 | 7089 ft | 157 kts | 47° |
| 2026-04-24 12:48 | -32.91991 | -55.95247 | 7089 ft | 158 kts | 48° |
| 2026-04-24 12:48 | -32.91230 | -55.94301 | 7089 ft | 158 kts | 47° |
| 2026-04-24 12:49 | -32.90465 | -55.93355 | 7088 ft | 158 kts | 47° |
| 2026-04-24 12:49 | -32.89703 | -55.92406 | 7089 ft | 158 kts | 47° |
| 2026-04-24 12:49 | -32.88943 | -55.91456 | 7088 ft | 158 kts | 48° |
| 2026-04-24 12:49 | -32.88191 | -55.90511 | 7089 ft | 158 kts | 47° |
| 2026-04-24 12:50 | -32.87429 | -55.89569 | 7089 ft | 158 kts | 47° |
| 2026-04-24 12:50 | -32.86655 | -55.88632 | 7086 ft | 159 kts | 46° |
| 2026-04-24 12:50 | -32.85884 | -55.87693 | 7087 ft | 158 kts | 47° |
| 2026-04-24 12:50 | -32.85124 | -55.86744 | 7086 ft | 158 kts | 48° |
| 2026-04-24 12:51 | -32.84362 | -55.85797 | 7088 ft | 158 kts | 47° |
| 2026-04-24 12:51 | -32.83588 | -55.84858 | 7086 ft | 159 kts | 47° |
| 2026-04-24 12:51 | -32.82816 | -55.83916 | 7087 ft | 159 kts | 47° |
| 2026-04-24 12:51 | -32.82051 | -55.82969 | 7086 ft | 159 kts | 47° |
| 2026-04-24 12:52 | -32.81283 | -55.82024 | 7086 ft | 158 kts | 47° |
| 2026-04-24 12:52 | -32.80520 | -55.81080 | 7085 ft | 158 kts | 47° |
| 2026-04-24 12:52 | -32.79756 | -55.80136 | 7086 ft | 158 kts | 47° |
| 2026-04-24 12:52 | -32.78984 | -55.79194 | 7086 ft | 159 kts | 47° |
| 2026-04-24 12:53 | -32.78217 | -55.78245 | 7085 ft | 158 kts | 48° |
| 2026-04-24 12:53 | -32.77715 | -55.77619 | 7086 ft | 159 kts | 48° |
| 2026-04-24 12:53 | -32.76948 | -55.76675 | 7085 ft | 159 kts | 47° |
| 2026-04-24 12:53 | -32.76182 | -55.75736 | 7086 ft | 158 kts | 48° |
| 2026-04-24 12:54 | -32.75417 | -55.74796 | 7085 ft | 158 kts | 47° |
| 2026-04-24 12:54 | -32.74651 | -55.73857 | 7085 ft | 158 kts | 47° |
| 2026-04-24 12:54 | -32.73886 | -55.72920 | 7086 ft | 158 kts | 47° |
| 2026-04-24 12:54 | -32.73119 | -55.71981 | 7086 ft | 158 kts | 47° |
| 2026-04-24 12:55 | -32.72359 | -55.71042 | 7087 ft | 158 kts | 48° |
| 2026-04-24 12:55 | -32.71600 | -55.70098 | 7086 ft | 158 kts | 47° |
| 2026-04-24 12:55 | -32.70836 | -55.69156 | 7086 ft | 158 kts | 47° |
| 2026-04-24 12:55 | -32.70069 | -55.68219 | 7085 ft | 159 kts | 47° |
| 2026-04-24 12:56 | -32.69313 | -55.67293 | 7084 ft | 158 kts | 47° |
| 2026-04-24 12:56 | -32.68543 | -55.66356 | 7084 ft | 159 kts | 48° |
| 2026-04-24 12:56 | -32.67779 | -55.65404 | 7083 ft | 159 kts | 48° |
| 2026-04-24 12:56 | -32.67011 | -55.64456 | 7084 ft | 159 kts | 47° |
| 2026-04-24 12:57 | -32.66234 | -55.63521 | 7083 ft | 158 kts | 47° |
| 2026-04-24 12:57 | -32.65463 | -55.62589 | 7083 ft | 158 kts | 47° |
| 2026-04-24 12:57 | -32.64698 | -55.61646 | 7083 ft | 159 kts | 47° |
| 2026-04-24 12:57 | -32.63932 | -55.60701 | 7083 ft | 159 kts | 47° |
| 2026-04-24 12:58 | -32.63162 | -55.59759 | 7083 ft | 159 kts | 47° |
| 2026-04-24 12:58 | -32.62392 | -55.58819 | 7083 ft | 158 kts | 48° |
| 2026-04-24 12:58 | -32.61628 | -55.57879 | 7083 ft | 158 kts | 47° |
| 2026-04-24 12:58 | -32.60864 | -55.56941 | 7080 ft | 158 kts | 48° |
| 2026-04-24 12:59 | -32.60100 | -55.55998 | 7081 ft | 159 kts | 47° |
| 2026-04-24 12:59 | -32.59327 | -55.55059 | 7081 ft | 159 kts | 47° |
| 2026-04-24 12:59 | -32.58554 | -55.54123 | 7081 ft | 159 kts | 47° |
| 2026-04-24 12:59 | -32.57784 | -55.53187 | 7081 ft | 159 kts | 47° |
| 2026-04-24 13:00 | -32.57020 | -55.52245 | 7080 ft | 157 kts | 48° |
| 2026-04-24 13:00 | -32.56257 | -55.51320 | 7083 ft | 157 kts | 48° |
| 2026-04-24 13:00 | -32.55494 | -55.50393 | 7083 ft | 156 kts | 48° |
| 2026-04-24 13:00 | -32.54735 | -55.49464 | 7083 ft | 157 kts | 48° |
| 2026-04-24 13:01 | -32.53984 | -55.48541 | 7083 ft | 155 kts | 48° |
| 2026-04-24 13:01 | -32.53227 | -55.47608 | 7081 ft | 156 kts | 48° |
| 2026-04-24 13:01 | -32.52463 | -55.46684 | 7081 ft | 158 kts | 47° |
| 2026-04-24 13:01 | -32.51699 | -55.45756 | 7080 ft | 156 kts | 48° |
| 2026-04-24 13:02 | -32.50941 | -55.44830 | 7080 ft | 156 kts | 48° |
| 2026-04-24 13:02 | -32.50187 | -55.43902 | 7080 ft | 156 kts | 48° |
| 2026-04-24 13:02 | -32.49433 | -55.42977 | 7080 ft | 156 kts | 48° |
| 2026-04-24 13:02 | -32.48678 | -55.42048 | 7079 ft | 157 kts | 48° |
| 2026-04-24 13:03 | -32.47914 | -55.41124 | 7079 ft | 156 kts | 47° |
| 2026-04-24 13:03 | -32.47142 | -55.40211 | 7078 ft | 156 kts | 47° |
| 2026-04-24 13:03 | -32.46377 | -55.39311 | 7078 ft | 155 kts | 48° |
| 2026-04-24 13:03 | -32.45633 | -55.38377 | 7077 ft | 156 kts | 49° |
| 2026-04-24 13:04 | -32.44896 | -55.37431 | 7078 ft | 157 kts | 48° |
| 2026-04-24 13:04 | -32.44135 | -55.36500 | 7076 ft | 156 kts | 47° |
| 2026-04-24 13:04 | -32.43375 | -55.35585 | 7076 ft | 156 kts | 47° |
| 2026-04-24 13:04 | -32.42621 | -55.34693 | 7075 ft | 153 kts | 47° |
| 2026-04-24 13:05 | -32.41879 | -55.33785 | 7075 ft | 153 kts | 48° |
| 2026-04-24 13:05 | -32.41147 | -55.32890 | 7075 ft | 154 kts | 48° |
| 2026-04-24 13:05 | -32.40396 | -55.31969 | 7075 ft | 152 kts | 47° |
| 2026-04-24 13:05 | -32.39662 | -55.31084 | 7076 ft | 152 kts | 47° |
| 2026-04-24 13:06 | -32.38919 | -55.30196 | 7077 ft | 151 kts | 47° |
| 2026-04-24 13:06 | -32.38179 | -55.29301 | 7077 ft | 153 kts | 48° |
| 2026-04-24 13:06 | -32.37447 | -55.28399 | 7078 ft | 153 kts | 49° |
| 2026-04-24 13:06 | -32.36711 | -55.27483 | 7078 ft | 153 kts | 47° |
| 2026-04-24 13:07 | -32.35966 | -55.26596 | 7077 ft | 153 kts | 47° |
| 2026-04-24 13:07 | -32.35229 | -55.25703 | 7072 ft | 152 kts | 47° |
| 2026-04-24 13:07 | -32.34486 | -55.24809 | 7072 ft | 153 kts | 47° |
| 2026-04-24 13:07 | -32.33736 | -55.23918 | 7074 ft | 153 kts | 47° |
| 2026-04-24 13:08 | -32.32990 | -55.23010 | 7075 ft | 153 kts | 47° |
| 2026-04-24 13:08 | -32.32252 | -55.22107 | 7076 ft | 153 kts | 48° |
| 2026-04-24 13:08 | -32.31520 | -55.21208 | 7076 ft | 151 kts | 47° |
| 2026-04-24 13:09 | -32.30046 | -55.19419 | 7076 ft | 153 kts | 48° |
| 2026-04-24 13:09 | -32.29306 | -55.18510 | 7072 ft | 154 kts | 47° |
| 2026-04-24 13:09 | -32.28561 | -55.17620 | 7074 ft | 153 kts | 47° |
| 2026-04-24 13:09 | -32.27815 | -55.16732 | 7073 ft | 152 kts | 46° |
| 2026-04-24 13:10 | -32.27071 | -55.15850 | 7074 ft | 153 kts | 47° |
| 2026-04-24 13:10 | -32.26331 | -55.14954 | 7076 ft | 152 kts | 47° |
| 2026-04-24 13:10 | -32.25591 | -55.14043 | 7077 ft | 153 kts | 47° |
| 2026-04-24 13:10 | -32.24853 | -55.13165 | 7077 ft | 153 kts | 47° |
| 2026-04-24 13:11 | -32.24108 | -55.12277 | 7075 ft | 151 kts | 47° |
| 2026-04-24 13:11 | -32.23372 | -55.11381 | 7077 ft | 153 kts | 48° |
| 2026-04-24 13:11 | -32.22639 | -55.10473 | 7076 ft | 153 kts | 47° |
| 2026-04-24 13:11 | -32.21892 | -55.09571 | 7075 ft | 155 kts | 47° |
| 2026-04-24 13:12 | -32.21143 | -55.08676 | 7077 ft | 153 kts | 47° |
| 2026-04-24 13:12 | -32.20403 | -55.07777 | 7075 ft | 151 kts | 47° |
| 2026-04-24 13:12 | -32.19665 | -55.06888 | 7074 ft | 153 kts | 48° |
| 2026-04-24 13:12 | -32.18928 | -55.05986 | 7073 ft | 152 kts | 47° |
| 2026-04-24 13:13 | -32.18186 | -55.05085 | 7071 ft | 153 kts | 47° |
| 2026-04-24 13:13 | -32.17443 | -55.04192 | 7072 ft | 152 kts | 47° |
| 2026-04-24 13:13 | -32.16695 | -55.03306 | 7071 ft | 152 kts | 46° |
| 2026-04-24 13:13 | -32.15954 | -55.02426 | 7073 ft | 152 kts | 48° |
| 2026-04-24 13:14 | -32.15215 | -55.01535 | 7074 ft | 152 kts | 46° |
| 2026-04-24 13:14 | -32.14470 | -55.00634 | 7071 ft | 155 kts | 47° |
| 2026-04-24 13:14 | -32.13727 | -54.99731 | 7072 ft | 153 kts | 46° |
| 2026-04-24 13:14 | -32.12980 | -54.98835 | 7072 ft | 152 kts | 47° |
| 2026-04-24 13:15 | -32.12244 | -54.97941 | 7069 ft | 153 kts | 47° |
| 2026-04-24 13:15 | -32.11497 | -54.97037 | 7071 ft | 154 kts | 46° |
| 2026-04-24 13:15 | -32.10751 | -54.96122 | 7072 ft | 155 kts | 47° |
| 2026-04-24 13:15 | -32.10001 | -54.95211 | 7073 ft | 154 kts | 46° |
| 2026-04-24 13:16 | -32.09247 | -54.94311 | 7073 ft | 153 kts | 46° |
| 2026-04-24 13:16 | -32.08490 | -54.93429 | 7073 ft | 153 kts | 46° |
| 2026-04-24 13:16 | -32.07740 | -54.92529 | 7072 ft | 153 kts | 46° |
| 2026-04-24 13:16 | -32.06987 | -54.91625 | 7071 ft | 154 kts | 47° |
| 2026-04-24 13:17 | -32.06237 | -54.90718 | 7074 ft | 154 kts | 46° |
| 2026-04-24 13:17 | -32.05488 | -54.89809 | 7074 ft | 154 kts | 47° |
| 2026-04-24 13:17 | -32.04738 | -54.88912 | 7075 ft | 154 kts | 46° |
| 2026-04-24 13:17 | -32.03996 | -54.88020 | 7073 ft | 154 kts | 46° |
| 2026-04-24 13:18 | -32.03238 | -54.87117 | 7073 ft | 156 kts | 46° |
| 2026-04-24 13:18 | -32.02479 | -54.86213 | 7073 ft | 154 kts | 46° |
| 2026-04-24 13:18 | -32.01721 | -54.85315 | 7068 ft | 154 kts | 46° |
| 2026-04-24 13:18 | -32.00970 | -54.84417 | 7069 ft | 154 kts | 47° |
| 2026-04-24 13:19 | -32.00220 | -54.83508 | 7070 ft | 154 kts | 47° |
| 2026-04-24 13:19 | -31.99470 | -54.82599 | 7069 ft | 156 kts | 46° |
| 2026-04-24 13:19 | -31.98712 | -54.81692 | 7069 ft | 154 kts | 46° |
| 2026-04-24 13:19 | -31.97961 | -54.80787 | 7069 ft | 154 kts | 47° |
| 2026-04-24 13:20 | -31.97213 | -54.79889 | 7071 ft | 154 kts | 47° |
| 2026-04-24 13:20 | -31.96465 | -54.78984 | 7070 ft | 154 kts | 47° |
| 2026-04-24 13:20 | -31.95715 | -54.78076 | 7070 ft | 155 kts | 46° |
| 2026-04-24 13:20 | -31.94956 | -54.77176 | 7070 ft | 154 kts | 46° |
| 2026-04-24 13:21 | -31.94202 | -54.76272 | 7070 ft | 154 kts | 47° |
| 2026-04-24 13:21 | -31.93451 | -54.75378 | 7070 ft | 153 kts | 46° |
| 2026-04-24 13:21 | -31.92691 | -54.74481 | 7070 ft | 155 kts | 46° |
| 2026-04-24 13:21 | -31.91930 | -54.73580 | 7070 ft | 156 kts | 46° |
| 2026-04-24 13:22 | -31.91171 | -54.72673 | 7070 ft | 155 kts | 46° |
| 2026-04-24 13:22 | -31.90410 | -54.71772 | 7067 ft | 154 kts | 46° |
| 2026-04-24 13:22 | -31.89658 | -54.70867 | 7067 ft | 154 kts | 46° |
| 2026-04-24 13:22 | -31.88906 | -54.69963 | 7067 ft | 154 kts | 47° |
| 2026-04-24 13:23 | -31.88145 | -54.69068 | 7069 ft | 155 kts | 46° |
| 2026-04-24 13:23 | -31.87386 | -54.68167 | 7069 ft | 154 kts | 46° |
| 2026-04-24 13:23 | -31.86637 | -54.67261 | 7068 ft | 154 kts | 46° |
| 2026-04-24 13:23 | -31.85885 | -54.66369 | 7070 ft | 154 kts | 46° |
| 2026-04-24 13:24 | -31.85146 | -54.65470 | 7070 ft | 155 kts | 47° |
| 2026-04-24 13:24 | -31.84390 | -54.64543 | 7066 ft | 155 kts | 46° |
| 2026-04-24 13:24 | -31.83636 | -54.63652 | 7065 ft | 155 kts | 46° |
| 2026-04-24 13:24 | -31.82875 | -54.62752 | 7064 ft | 155 kts | 46° |
| 2026-04-24 13:25 | -31.82114 | -54.61864 | 7063 ft | 154 kts | 46° |
| 2026-04-24 13:25 | -31.81353 | -54.60967 | 7063 ft | 154 kts | 46° |
| 2026-04-24 13:25 | -31.80597 | -54.60064 | 7063 ft | 156 kts | 47° |
| 2026-04-24 13:25 | -31.79843 | -54.59154 | 7064 ft | 154 kts | 46° |
| 2026-04-24 13:26 | -31.79096 | -54.58244 | 7063 ft | 154 kts | 47° |
| 2026-04-24 13:26 | -31.78341 | -54.57349 | 7064 ft | 154 kts | 46° |
| 2026-04-24 13:26 | -31.77578 | -54.56457 | 7065 ft | 155 kts | 46° |
| 2026-04-24 13:26 | -31.76813 | -54.55566 | 7065 ft | 155 kts | 46° |
| 2026-04-24 13:27 | -31.76055 | -54.54659 | 7066 ft | 154 kts | 47° |
| 2026-04-24 13:27 | -31.75320 | -54.53767 | 7067 ft | 154 kts | 47° |
| 2026-04-24 13:27 | -31.74569 | -54.52884 | 7067 ft | 153 kts | 47° |
| 2026-04-24 13:27 | -31.73814 | -54.51997 | 7067 ft | 153 kts | 47° |
| 2026-04-24 13:28 | -31.73059 | -54.51106 | 7068 ft | 154 kts | 47° |
| 2026-04-24 13:28 | -31.72305 | -54.50212 | 7067 ft | 154 kts | 47° |
| 2026-04-24 13:28 | -31.71557 | -54.49310 | 7067 ft | 154 kts | 48° |
| 2026-04-24 13:28 | -31.70810 | -54.48427 | 7067 ft | 152 kts | 47° |
| 2026-04-24 13:29 | -31.70062 | -54.47536 | 7066 ft | 153 kts | 48° |
| 2026-04-24 13:29 | -31.69311 | -54.46642 | 7066 ft | 155 kts | 47° |
| 2026-04-24 13:29 | -31.68560 | -54.45746 | 7067 ft | 153 kts | 47° |
| 2026-04-24 13:29 | -31.67808 | -54.44861 | 7066 ft | 152 kts | 47° |
| 2026-04-24 13:30 | -31.67060 | -54.43984 | 7065 ft | 152 kts | 47° |
| 2026-04-24 13:30 | -31.66316 | -54.43100 | 7064 ft | 152 kts | 48° |
| 2026-04-24 13:30 | -31.65589 | -54.42221 | 7067 ft | 153 kts | 48° |
| 2026-04-24 13:30 | -31.64845 | -54.41321 | 7067 ft | 154 kts | 47° |
| 2026-04-24 13:31 | -31.64078 | -54.40430 | 7064 ft | 153 kts | 47° |
| 2026-04-24 13:31 | -31.63319 | -54.39568 | 7066 ft | 152 kts | 47° |
| 2026-04-24 13:31 | -31.62590 | -54.38686 | 7067 ft | 153 kts | 48° |
| 2026-04-24 13:31 | -31.61844 | -54.37792 | 7065 ft | 154 kts | 48° |
| 2026-04-24 13:32 | -31.61093 | -54.36894 | 7066 ft | 154 kts | 47° |
| 2026-04-24 13:32 | -31.60337 | -54.36004 | 7066 ft | 154 kts | 47° |
| 2026-04-24 13:32 | -31.59573 | -54.35120 | 7066 ft | 154 kts | 47° |
| 2026-04-24 13:32 | -31.58818 | -54.34220 | 7065 ft | 156 kts | 48° |
| 2026-04-24 13:33 | -31.58052 | -54.33328 | 7065 ft | 156 kts | 47° |
| 2026-04-24 13:33 | -31.57294 | -54.32414 | 7065 ft | 156 kts | 48° |
| 2026-04-24 13:33 | -31.56539 | -54.31492 | 7065 ft | 157 kts | 48° |
| 2026-04-24 13:33 | -31.55772 | -54.30594 | 7065 ft | 155 kts | 46° |
| 2026-04-24 13:34 | -31.54999 | -54.29706 | 7061 ft | 156 kts | 47° |
| 2026-04-24 13:34 | -31.54236 | -54.28811 | 7062 ft | 156 kts | 49° |
| 2026-04-24 13:34 | -31.53489 | -54.27894 | 7060 ft | 154 kts | 47° |
| 2026-04-24 13:34 | -31.52723 | -54.27012 | 7061 ft | 155 kts | 47° |
| 2026-04-24 13:35 | -31.51961 | -54.26143 | 7062 ft | 152 kts | 47° |
| 2026-04-24 13:35 | -31.51213 | -54.25259 | 7062 ft | 154 kts | 47° |
| 2026-04-24 13:35 | -31.50455 | -54.24381 | 7065 ft | 153 kts | 47° |
| 2026-04-24 13:35 | -31.49708 | -54.23483 | 7064 ft | 153 kts | 48° |
| 2026-04-24 13:36 | -31.48965 | -54.22591 | 7062 ft | 153 kts | 49° |
| 2026-04-24 13:36 | -31.48230 | -54.21698 | 7064 ft | 151 kts | 47° |
| 2026-04-24 13:36 | -31.47477 | -54.20830 | 7064 ft | 153 kts | 46° |
| 2026-04-24 13:36 | -31.46731 | -54.19965 | 7064 ft | 153 kts | 47° |
| 2026-04-24 13:37 | -31.45983 | -54.19075 | 7066 ft | 153 kts | 47° |
| 2026-04-24 13:37 | -31.45228 | -54.18195 | 7065 ft | 153 kts | 47° |
| 2026-04-24 13:37 | -31.44474 | -54.17322 | 7064 ft | 153 kts | 47° |
| 2026-04-24 13:37 | -31.43722 | -54.16448 | 7065 ft | 153 kts | 48° |
| 2026-04-24 13:38 | -31.42985 | -54.15549 | 7062 ft | 154 kts | 48° |
| 2026-04-24 13:38 | -31.42236 | -54.14654 | 7064 ft | 153 kts | 47° |
| 2026-04-24 13:38 | -31.41479 | -54.13782 | 7064 ft | 153 kts | 47° |
| 2026-04-24 13:38 | -31.40724 | -54.12910 | 7064 ft | 152 kts | 47° |
| 2026-04-24 13:39 | -31.39971 | -54.12031 | 7064 ft | 153 kts | 47° |
| 2026-04-24 13:39 | -31.39217 | -54.11150 | 7066 ft | 154 kts | 52° |
| 2026-04-24 13:39 | -31.38667 | -54.10086 | 7065 ft | 153 kts | 67° |
| 2026-04-24 13:39 | -31.38180 | -54.08993 | 7066 ft | 152 kts | 64° |
| 2026-04-24 13:40 | -31.37679 | -54.07917 | 7063 ft | 149 kts | 65° |
| 2026-04-24 13:40 | -31.37356 | -54.07205 | 7064 ft | 150 kts | 65° |
| 2026-04-24 13:40 | -31.36696 | -54.05775 | 7063 ft | 152 kts | 65° |
| 2026-04-24 13:40 | -31.36212 | -54.04679 | 7064 ft | 152 kts | 65° |
| 2026-04-24 13:41 | -31.35720 | -54.03589 | 7063 ft | 151 kts | 65° |
| 2026-04-24 13:41 | -31.35223 | -54.02516 | 7064 ft | 150 kts | 64° |
| 2026-04-24 13:41 | -31.34722 | -54.01443 | 7065 ft | 151 kts | 65° |
| 2026-04-24 13:41 | -31.34401 | -54.00722 | 7065 ft | 151 kts | 65° |
| 2026-04-24 13:42 | -31.33906 | -53.99611 | 7067 ft | 153 kts | 65° |
| 2026-04-24 13:42 | -31.33431 | -53.98535 | 7065 ft | 150 kts | 64° |
| 2026-04-24 13:42 | -31.32929 | -53.97469 | 7064 ft | 149 kts | 63° |
| 2026-04-24 13:42 | -31.32434 | -53.96402 | 7064 ft | 150 kts | 64° |
| 2026-04-24 13:43 | -31.31937 | -53.95328 | 7066 ft | 150 kts | 63° |
| 2026-04-24 13:43 | -31.31439 | -53.94250 | 7063 ft | 151 kts | 64° |
| 2026-04-24 13:43 | -31.30954 | -53.93171 | 7064 ft | 150 kts | 64° |
| 2026-04-24 13:43 | -31.30462 | -53.92100 | 7063 ft | 148 kts | 64° |
| 2026-04-24 13:44 | -31.29976 | -53.91036 | 7062 ft | 149 kts | 64° |
| 2026-04-24 13:44 | -31.29481 | -53.89970 | 7063 ft | 150 kts | 63° |
| 2026-04-24 13:44 | -31.28985 | -53.88891 | 7064 ft | 150 kts | 64° |
| 2026-04-24 13:44 | -31.28491 | -53.87822 | 7063 ft | 149 kts | 64° |
| 2026-04-24 13:45 | -31.28005 | -53.86752 | 7066 ft | 148 kts | 64° |
| 2026-04-24 13:45 | -31.27524 | -53.85687 | 7064 ft | 150 kts | 64° |
| 2026-04-24 13:45 | -31.27032 | -53.84614 | 7063 ft | 150 kts | 63° |
| 2026-04-24 13:45 | -31.26534 | -53.83538 | 7063 ft | 150 kts | 63° |
| 2026-04-24 13:46 | -31.26045 | -53.82467 | 7061 ft | 150 kts | 63° |
| 2026-04-24 13:46 | -31.25561 | -53.81396 | 7064 ft | 148 kts | 64° |
| 2026-04-24 13:46 | -31.25071 | -53.80335 | 7064 ft | 149 kts | 64° |
| 2026-04-24 13:46 | -31.24573 | -53.79271 | 7065 ft | 150 kts | 63° |
| 2026-04-24 13:47 | -31.24079 | -53.78192 | 7062 ft | 151 kts | 63° |
| 2026-04-24 13:47 | -31.23582 | -53.77124 | 7062 ft | 150 kts | 63° |
| 2026-04-24 13:47 | -31.23095 | -53.76054 | 7062 ft | 148 kts | 64° |
| 2026-04-24 13:47 | -31.22608 | -53.74988 | 7063 ft | 150 kts | 64° |
| 2026-04-24 13:48 | -31.22120 | -53.73913 | 7065 ft | 151 kts | 64° |
| 2026-04-24 13:48 | -31.21638 | -53.72829 | 7062 ft | 150 kts | 62° |
| 2026-04-24 13:48 | -31.21138 | -53.71759 | 7061 ft | 150 kts | 62° |
| 2026-04-24 13:48 | -31.20637 | -53.70693 | 7062 ft | 150 kts | 62° |
| 2026-04-24 13:49 | -31.20137 | -53.69624 | 7061 ft | 150 kts | 62° |
| 2026-04-24 13:49 | -31.19641 | -53.68552 | 7061 ft | 150 kts | 63° |
| 2026-04-24 13:49 | -31.19229 | -53.67436 | 7062 ft | 150 kts | 71° |
| 2026-04-24 13:49 | -31.18904 | -53.66296 | 7061 ft | 150 kts | 71° |
| 2026-04-24 13:50 | -31.18561 | -53.65151 | 7061 ft | 149 kts | 71° |
| 2026-04-24 13:50 | -31.18215 | -53.64005 | 7061 ft | 150 kts | 71° |
| 2026-04-24 13:50 | -31.17871 | -53.62859 | 7062 ft | 150 kts | 71° |
| 2026-04-24 13:50 | -31.17527 | -53.61712 | 7061 ft | 149 kts | 71° |
| 2026-04-24 13:51 | -31.17187 | -53.60567 | 7064 ft | 150 kts | 71° |
| 2026-04-24 13:51 | -31.16844 | -53.59422 | 7064 ft | 149 kts | 71° |
| 2026-04-24 13:51 | -31.16500 | -53.58277 | 7063 ft | 149 kts | 71° |
| 2026-04-24 13:51 | -31.16158 | -53.57132 | 7055 ft | 150 kts | 71° |
| 2026-04-24 13:52 | -31.15811 | -53.55978 | 7026 ft | 152 kts | 71° |
| 2026-04-24 13:52 | -31.15466 | -53.54811 | 6991 ft | 152 kts | 71° |
| 2026-04-24 13:52 | -31.15118 | -53.53645 | 6984 ft | 151 kts | 71° |
| 2026-04-24 13:52 | -31.14772 | -53.52490 | 6984 ft | 151 kts | 71° |
| 2026-04-24 13:53 | -31.14427 | -53.51336 | 6978 ft | 150 kts | 71° |
| 2026-04-24 13:53 | -31.14081 | -53.50184 | 6977 ft | 150 kts | 71° |
| 2026-04-24 13:53 | -31.13738 | -53.49031 | 6977 ft | 150 kts | 71° |
| 2026-04-24 13:53 | -31.13393 | -53.47880 | 6976 ft | 150 kts | 71° |
| 2026-04-24 13:54 | -31.13049 | -53.46727 | 6972 ft | 151 kts | 71° |
| 2026-04-24 13:54 | -31.12702 | -53.45577 | 6973 ft | 150 kts | 71° |
| 2026-04-24 13:54 | -31.12360 | -53.44426 | 6977 ft | 150 kts | 71° |
| 2026-04-24 13:54 | -31.12012 | -53.43273 | 6977 ft | 151 kts | 71° |
| 2026-04-24 13:55 | -31.11667 | -53.42119 | 6977 ft | 151 kts | 71° |
| 2026-04-24 13:55 | -31.11323 | -53.40956 | 6977 ft | 151 kts | 71° |
| 2026-04-24 13:55 | -31.10974 | -53.39802 | 6976 ft | 151 kts | 71° |
| 2026-04-24 13:55 | -31.10627 | -53.38648 | 6975 ft | 151 kts | 71° |
| 2026-04-24 13:56 | -31.10277 | -53.37496 | 6980 ft | 150 kts | 71° |
| 2026-04-24 13:56 | -31.09931 | -53.36347 | 6979 ft | 150 kts | 71° |
| 2026-04-24 13:56 | -31.09593 | -53.35213 | 6977 ft | 149 kts | 71° |
| 2026-04-24 13:56 | -31.09246 | -53.34070 | 6978 ft | 149 kts | 71° |
| 2026-04-24 13:57 | -31.08902 | -53.32927 | 6977 ft | 149 kts | 71° |
| 2026-04-24 13:57 | -31.08562 | -53.31787 | 6978 ft | 149 kts | 71° |
| 2026-04-24 13:57 | -31.08221 | -53.30650 | 6980 ft | 149 kts | 71° |
| 2026-04-24 13:57 | -31.07876 | -53.29511 | 6978 ft | 149 kts | 71° |
| 2026-04-24 13:58 | -31.07533 | -53.28370 | 6979 ft | 149 kts | 71° |
| 2026-04-24 13:58 | -31.07190 | -53.27229 | 6979 ft | 149 kts | 70° |
| 2026-04-24 13:58 | -31.06844 | -53.26090 | 6979 ft | 149 kts | 71° |
| 2026-04-24 13:58 | -31.06500 | -53.24951 | 6979 ft | 148 kts | 71° |
| 2026-04-24 13:59 | -31.06166 | -53.23827 | 6980 ft | 147 kts | 71° |
| 2026-04-24 13:59 | -31.05827 | -53.22705 | 6980 ft | 147 kts | 70° |
| 2026-04-24 13:59 | -31.05488 | -53.21580 | 6980 ft | 147 kts | 70° |
| 2026-04-24 13:59 | -31.05148 | -53.20457 | 6979 ft | 147 kts | 70° |
| 2026-04-24 14:00 | -31.04806 | -53.19333 | 6979 ft | 147 kts | 70° |
| 2026-04-24 14:00 | -31.04464 | -53.18217 | 6981 ft | 146 kts | 70° |
| 2026-04-24 14:00 | -31.04126 | -53.17100 | 6981 ft | 146 kts | 71° |
| 2026-04-24 14:00 | -31.03790 | -53.15986 | 6981 ft | 146 kts | 71° |
| 2026-04-24 14:01 | -31.03452 | -53.14872 | 6980 ft | 146 kts | 71° |
| 2026-04-24 14:01 | -31.03116 | -53.13751 | 6979 ft | 146 kts | 71° |
| 2026-04-24 14:01 | -31.02779 | -53.12633 | 6980 ft | 146 kts | 71° |
| 2026-04-24 14:01 | -31.02439 | -53.11516 | 6979 ft | 146 kts | 71° |
| 2026-04-24 14:02 | -31.02098 | -53.10399 | 6979 ft | 146 kts | 71° |
| 2026-04-24 14:02 | -31.01765 | -53.09294 | 6979 ft | 147 kts | 71° |
| 2026-04-24 14:02 | -31.01428 | -53.08172 | 6979 ft | 146 kts | 71° |
| 2026-04-24 14:02 | -31.01091 | -53.07052 | 6980 ft | 146 kts | 71° |
| 2026-04-24 14:03 | -31.00749 | -53.05937 | 6981 ft | 146 kts | 70° |
| 2026-04-24 14:03 | -31.00411 | -53.04815 | 6983 ft | 147 kts | 71° |
| 2026-04-24 14:03 | -31.00069 | -53.03692 | 6981 ft | 147 kts | 70° |
| 2026-04-24 14:03 | -30.99724 | -53.02570 | 6982 ft | 146 kts | 70° |
| 2026-04-24 14:04 | -30.99385 | -53.01456 | 6977 ft | 146 kts | 70° |
| 2026-04-24 14:04 | -30.99045 | -53.00341 | 6979 ft | 145 kts | 71° |
| 2026-04-24 14:04 | -30.98713 | -52.99238 | 6979 ft | 144 kts | 71° |
| 2026-04-24 14:04 | -30.98378 | -52.98139 | 6978 ft | 143 kts | 71° |
| 2026-04-24 14:05 | -30.98045 | -52.97047 | 6976 ft | 143 kts | 71° |
| 2026-04-24 14:05 | -30.97716 | -52.95955 | 6977 ft | 143 kts | 71° |
| 2026-04-24 14:05 | -30.97383 | -52.94865 | 6979 ft | 143 kts | 71° |
| 2026-04-24 14:05 | -30.97051 | -52.93773 | 6977 ft | 142 kts | 70° |
| 2026-04-24 14:06 | -30.96715 | -52.92686 | 6981 ft | 143 kts | 70° |
| 2026-04-24 14:06 | -30.96380 | -52.91591 | 6980 ft | 143 kts | 70° |
| 2026-04-24 14:06 | -30.96045 | -52.90495 | 6979 ft | 144 kts | 70° |
| 2026-04-24 14:06 | -30.95710 | -52.89393 | 6979 ft | 145 kts | 71° |
| 2026-04-24 14:07 | -30.95379 | -52.88283 | 6976 ft | 145 kts | 71° |
| 2026-04-24 14:07 | -30.95036 | -52.87173 | 6975 ft | 145 kts | 70° |
| 2026-04-24 14:07 | -30.94699 | -52.86080 | 6976 ft | 145 kts | 70° |
| 2026-04-24 14:07 | -30.94359 | -52.84981 | 6975 ft | 144 kts | 71° |
| 2026-04-24 14:08 | -30.94027 | -52.83880 | 6977 ft | 144 kts | 71° |
| 2026-04-24 14:08 | -30.93696 | -52.82780 | 6977 ft | 144 kts | 70° |
| 2026-04-24 14:08 | -30.93357 | -52.81683 | 6977 ft | 144 kts | 70° |
| 2026-04-24 14:08 | -30.93018 | -52.80582 | 6976 ft | 144 kts | 71° |
| 2026-04-24 14:09 | -30.92684 | -52.79484 | 6980 ft | 145 kts | 71° |
| 2026-04-24 14:09 | -30.92348 | -52.78369 | 6983 ft | 147 kts | 70° |
| 2026-04-24 14:09 | -30.92000 | -52.77249 | 6982 ft | 147 kts | 70° |
| 2026-04-24 14:09 | -30.91653 | -52.76134 | 6979 ft | 145 kts | 70° |
| 2026-04-24 14:10 | -30.91426 | -52.75402 | 6975 ft | 145 kts | 71° |
| 2026-04-24 14:10 | -30.90977 | -52.73920 | 6975 ft | 145 kts | 71° |
| 2026-04-24 14:10 | -30.90640 | -52.72816 | 6976 ft | 145 kts | 71° |
| 2026-04-24 14:10 | -30.90305 | -52.71709 | 6976 ft | 145 kts | 71° |
| 2026-04-24 14:11 | -30.89963 | -52.70603 | 6978 ft | 144 kts | 70° |
| 2026-04-24 14:11 | -30.89625 | -52.69498 | 6977 ft | 145 kts | 71° |
| 2026-04-24 14:11 | -30.88949 | -52.67268 | 6976 ft | 147 kts | 71° |
| 2026-04-24 14:12 | -30.88600 | -52.66153 | 6973 ft | 147 kts | 70° |
| 2026-04-24 14:12 | -30.88251 | -52.65028 | 6977 ft | 147 kts | 71° |
| 2026-04-24 14:12 | -30.87907 | -52.63907 | 6976 ft | 147 kts | 70° |
| 2026-04-24 14:12 | -30.87558 | -52.62792 | 6976 ft | 147 kts | 70° |
| 2026-04-24 14:13 | -30.87211 | -52.61670 | 6973 ft | 147 kts | 71° |
| 2026-04-24 14:13 | -30.86865 | -52.60550 | 6972 ft | 147 kts | 71° |
| 2026-04-24 14:13 | -30.86529 | -52.59447 | 6970 ft | 146 kts | 71° |
| 2026-04-24 14:13 | -30.86183 | -52.58334 | 6971 ft | 146 kts | 71° |
| 2026-04-24 14:14 | -30.85843 | -52.57222 | 6969 ft | 145 kts | 71° |
| 2026-04-24 14:14 | -30.85508 | -52.56117 | 6969 ft | 145 kts | 71° |
| 2026-04-24 14:14 | -30.84821 | -52.53912 | 6971 ft | 145 kts | 71° |
| 2026-04-24 14:15 | -30.84484 | -52.52809 | 6966 ft | 145 kts | 71° |
| 2026-04-24 14:15 | -30.84152 | -52.51705 | 6963 ft | 144 kts | 71° |
| 2026-04-24 14:15 | -30.83818 | -52.50607 | 6964 ft | 144 kts | 70° |
| 2026-04-24 14:15 | -30.83479 | -52.49519 | 6966 ft | 143 kts | 70° |
| 2026-04-24 14:16 | -30.83142 | -52.48432 | 6969 ft | 143 kts | 69° |
| 2026-04-24 14:16 | -30.82800 | -52.47339 | 6969 ft | 144 kts | 70° |
| 2026-04-24 14:16 | -30.82457 | -52.46239 | 6969 ft | 145 kts | 69° |
| 2026-04-24 14:17 | -30.81767 | -52.44037 | 6969 ft | 145 kts | 69° |
| 2026-04-24 14:17 | -30.81425 | -52.42938 | 6969 ft | 144 kts | 70° |
| 2026-04-24 14:17 | -30.80756 | -52.40748 | 6967 ft | 144 kts | 70° |
| 2026-04-24 14:18 | -30.80418 | -52.39654 | 6963 ft | 144 kts | 70° |
| 2026-04-24 14:18 | -30.80079 | -52.38558 | 6965 ft | 144 kts | 70° |
| 2026-04-24 14:18 | -30.79740 | -52.37469 | 6965 ft | 142 kts | 70° |
| 2026-04-24 14:18 | -30.79409 | -52.36399 | 6965 ft | 142 kts | 70° |
| 2026-04-24 14:19 | -30.79182 | -52.35667 | 6967 ft | 142 kts | 70° |
| 2026-04-24 14:19 | -30.78736 | -52.34222 | 6966 ft | 143 kts | 70° |
| 2026-04-24 14:19 | -30.78397 | -52.33136 | 6966 ft | 143 kts | 70° |
| 2026-04-24 14:19 | -30.78056 | -52.32046 | 6967 ft | 143 kts | 70° |
| 2026-04-24 14:20 | -30.77716 | -52.30952 | 6966 ft | 144 kts | 70° |
| 2026-04-24 14:20 | -30.77375 | -52.29851 | 6966 ft | 145 kts | 70° |
| 2026-04-24 14:20 | -30.77031 | -52.28754 | 6967 ft | 145 kts | 69° |
| 2026-04-24 14:20 | -30.76691 | -52.27649 | 6961 ft | 146 kts | 70° |
| 2026-04-24 14:21 | -30.76344 | -52.26528 | 6960 ft | 147 kts | 69° |
| 2026-04-24 14:21 | -30.76003 | -52.25413 | 6960 ft | 146 kts | 69° |
| 2026-04-24 14:21 | -30.75653 | -52.24305 | 6961 ft | 146 kts | 69° |
| 2026-04-24 14:21 | -30.75303 | -52.23194 | 6960 ft | 147 kts | 69° |
| 2026-04-24 14:22 | -30.74954 | -52.22081 | 6963 ft | 146 kts | 69° |
| 2026-04-24 14:22 | -30.74608 | -52.20967 | 6962 ft | 146 kts | 69° |
| 2026-04-24 14:22 | -30.73903 | -52.18749 | 6964 ft | 146 kts | 69° |
| 2026-04-24 14:23 | -30.73560 | -52.17635 | 6961 ft | 146 kts | 69° |
| 2026-04-24 14:23 | -30.73214 | -52.16518 | 6961 ft | 148 kts | 69° |
| 2026-04-24 14:23 | -30.72873 | -52.15404 | 6961 ft | 148 kts | 69° |
| 2026-04-24 14:23 | -30.72527 | -52.14279 | 6961 ft | 147 kts | 69° |
| 2026-04-24 14:24 | -30.72185 | -52.13159 | 6961 ft | 147 kts | 69° |
| 2026-04-24 14:24 | -30.71825 | -52.12042 | 6961 ft | 148 kts | 68° |
| 2026-04-24 14:24 | -30.71464 | -52.10919 | 6961 ft | 149 kts | 69° |
| 2026-04-24 14:24 | -30.71112 | -52.09790 | 6960 ft | 148 kts | 69° |
| 2026-04-24 14:25 | -30.70877 | -52.09031 | 6958 ft | 148 kts | 69° |
| 2026-04-24 14:25 | -30.70415 | -52.07553 | 6960 ft | 147 kts | 69° |
| 2026-04-24 14:25 | -30.69931 | -52.06515 | 6952 ft | 147 kts | 46° |
| 2026-04-24 14:25 | -30.69050 | -52.05909 | 6964 ft | 148 kts | 27° |
| 2026-04-24 14:26 | -30.68127 | -52.05362 | 6962 ft | 149 kts | 31° |
| 2026-04-24 14:26 | -30.67222 | -52.04787 | 6960 ft | 148 kts | 31° |
| 2026-04-24 14:26 | -30.66336 | -52.04200 | 6955 ft | 145 kts | 29° |
| 2026-04-24 14:26 | -30.65442 | -52.03651 | 6957 ft | 147 kts | 26° |
| 2026-04-24 14:27 | -30.64528 | -52.03110 | 6958 ft | 148 kts | 27° |
| 2026-04-24 14:27 | -30.63599 | -52.02566 | 6958 ft | 149 kts | 25° |
| 2026-04-24 14:27 | -30.62675 | -52.02033 | 6958 ft | 146 kts | 26° |
| 2026-04-24 14:27 | -30.61767 | -52.01465 | 6958 ft | 148 kts | 28° |
| 2026-04-24 14:28 | -30.60862 | -52.00911 | 6954 ft | 146 kts | 26° |
| 2026-04-24 14:28 | -30.59944 | -52.00373 | 6954 ft | 148 kts | 26° |
| 2026-04-24 14:28 | -30.59042 | -51.99807 | 6954 ft | 149 kts | 27° |
| 2026-04-24 14:28 | -30.58428 | -51.99439 | 6955 ft | 151 kts | 26° |
| 2026-04-24 14:29 | -30.57499 | -51.98899 | 6955 ft | 149 kts | 26° |
| 2026-04-24 14:29 | -30.56580 | -51.98351 | 6955 ft | 146 kts | 25° |
| 2026-04-24 14:29 | -30.55674 | -51.97814 | 6955 ft | 146 kts | 26° |
| 2026-04-24 14:29 | -30.54762 | -51.97259 | 6952 ft | 148 kts | 26° |
| 2026-04-24 14:30 | -30.53847 | -51.96712 | 6951 ft | 149 kts | 26° |
| 2026-04-24 14:30 | -30.52926 | -51.96159 | 6951 ft | 148 kts | 26° |
| 2026-04-24 14:30 | -30.52012 | -51.95614 | 6951 ft | 148 kts | 26° |
| 2026-04-24 14:30 | -30.51109 | -51.95060 | 6952 ft | 144 kts | 27° |
| 2026-04-24 14:31 | -30.50211 | -51.94509 | 6957 ft | 149 kts | 26° |
| 2026-04-24 14:31 | -30.49285 | -51.93950 | 6956 ft | 151 kts | 27° |
| 2026-04-24 14:31 | -30.48339 | -51.93385 | 6956 ft | 155 kts | 26° |
| 2026-04-24 14:31 | -30.47376 | -51.92811 | 6954 ft | 155 kts | 26° |
| 2026-04-24 14:32 | -30.46442 | -51.92256 | 6949 ft | 151 kts | 26° |
| 2026-04-24 14:32 | -30.45525 | -51.91667 | 6947 ft | 148 kts | 32° |
| 2026-04-24 14:32 | -30.44778 | -51.90870 | 6946 ft | 148 kts | 46° |
| 2026-04-24 14:32 | -30.44104 | -51.89960 | 6946 ft | 150 kts | 46° |
| 2026-04-24 14:33 | -30.43418 | -51.89055 | 6948 ft | 149 kts | 47° |
| 2026-04-24 14:33 | -30.42742 | -51.88135 | 6946 ft | 151 kts | 45° |
| 2026-04-24 14:33 | -30.42056 | -51.87216 | 6947 ft | 151 kts | 45° |
| 2026-04-24 14:33 | -30.41369 | -51.86291 | 6946 ft | 151 kts | 45° |
| 2026-04-24 14:34 | -30.40683 | -51.85365 | 6949 ft | 152 kts | 45° |
| 2026-04-24 14:34 | -30.39991 | -51.84446 | 6948 ft | 151 kts | 45° |
| 2026-04-24 14:34 | -30.39298 | -51.83525 | 6947 ft | 152 kts | 45° |
| 2026-04-24 14:34 | -30.38616 | -51.82591 | 6948 ft | 152 kts | 45° |
| 2026-04-24 14:35 | -30.37924 | -51.81665 | 6950 ft | 152 kts | 44° |
| 2026-04-24 14:35 | -30.37231 | -51.80748 | 6943 ft | 151 kts | 45° |
| 2026-04-24 14:35 | -30.36545 | -51.79837 | 6948 ft | 149 kts | 45° |
| 2026-04-24 14:35 | -30.35860 | -51.78933 | 6948 ft | 149 kts | 46° |
| 2026-04-24 14:36 | -30.35189 | -51.78012 | 6945 ft | 150 kts | 45° |
| 2026-04-24 14:36 | -30.34508 | -51.77096 | 6946 ft | 150 kts | 45° |
| 2026-04-24 14:36 | -30.33821 | -51.76185 | 6947 ft | 151 kts | 45° |
| 2026-04-24 14:36 | -30.33137 | -51.75270 | 6947 ft | 149 kts | 46° |
| 2026-04-24 14:37 | -30.32463 | -51.74359 | 6949 ft | 149 kts | 46° |
| 2026-04-24 14:37 | -30.31779 | -51.73445 | 6947 ft | 150 kts | 45° |
| 2026-04-24 14:37 | -30.31091 | -51.72532 | 6947 ft | 150 kts | 45° |
| 2026-04-24 14:37 | -30.30408 | -51.71632 | 6947 ft | 150 kts | 45° |
| 2026-04-24 14:38 | -30.29721 | -51.70723 | 6946 ft | 151 kts | 46° |
| 2026-04-24 14:38 | -30.29046 | -51.69800 | 6947 ft | 149 kts | 47° |
| 2026-04-24 14:38 | -30.28383 | -51.68896 | 6947 ft | 149 kts | 45° |
| 2026-04-24 14:38 | -30.27695 | -51.67988 | 6947 ft | 150 kts | 46° |
| 2026-04-24 14:39 | -30.27007 | -51.67077 | 6950 ft | 150 kts | 45° |
| 2026-04-24 14:39 | -30.26321 | -51.66165 | 6941 ft | 150 kts | 45° |
| 2026-04-24 14:39 | -30.25640 | -51.65254 | 6942 ft | 150 kts | 46° |
| 2026-04-24 14:39 | -30.24959 | -51.64347 | 6942 ft | 149 kts | 46° |
| 2026-04-24 14:40 | -30.24278 | -51.63432 | 6941 ft | 150 kts | 46° |
| 2026-04-24 14:40 | -30.23602 | -51.62506 | 6942 ft | 151 kts | 46° |
| 2026-04-24 14:40 | -30.22924 | -51.61585 | 6942 ft | 150 kts | 46° |
| 2026-04-24 14:40 | -30.22250 | -51.60656 | 6942 ft | 150 kts | 46° |
| 2026-04-24 14:41 | -30.21579 | -51.59727 | 6937 ft | 151 kts | 46° |
| 2026-04-24 14:41 | -30.20905 | -51.58798 | 6938 ft | 151 kts | 46° |
| 2026-04-24 14:41 | -30.20228 | -51.57869 | 6939 ft | 152 kts | 46° |
| 2026-04-24 14:41 | -30.19543 | -51.56939 | 6937 ft | 152 kts | 46° |
| 2026-04-24 14:42 | -30.18861 | -51.56006 | 6942 ft | 153 kts | 46° |
| 2026-04-24 14:42 | -30.18173 | -51.55061 | 6942 ft | 154 kts | 46° |
| 2026-04-24 14:42 | -30.17496 | -51.54133 | 6936 ft | 146 kts | 46° |
| 2026-04-24 14:42 | -30.16858 | -51.53265 | 6828 ft | 144 kts | 46° |
| 2026-04-24 14:43 | -30.16197 | -51.52364 | 6629 ft | 148 kts | 46° |
| 2026-04-24 14:43 | -30.15545 | -51.51474 | 6521 ft | 143 kts | 46° |
| 2026-04-24 14:43 | -30.14895 | -51.50591 | 6299 ft | 146 kts | 47° |
| 2026-04-24 14:43 | -30.14247 | -51.49693 | 6130 ft | 144 kts | 47° |
| 2026-04-24 14:44 | -30.13605 | -51.48812 | 5959 ft | 143 kts | 47° |
| 2026-04-24 14:44 | -30.12961 | -51.47932 | 5767 ft | 143 kts | 47° |
| 2026-04-24 14:44 | -30.12318 | -51.47053 | 5597 ft | 143 kts | 47° |
| 2026-04-24 14:44 | -30.11678 | -51.46172 | 5407 ft | 144 kts | 47° |
| 2026-04-24 14:45 | -30.11035 | -51.45302 | 5221 ft | 141 kts | 46° |
| 2026-04-24 14:45 | -30.10403 | -51.44440 | 5051 ft | 141 kts | 47° |
| 2026-04-24 14:45 | -30.09768 | -51.43573 | 4865 ft | 141 kts | 47° |
| 2026-04-24 14:45 | -30.09134 | -51.42707 | 4685 ft | 140 kts | 47° |
| 2026-04-24 14:46 | -30.08490 | -51.41868 | 4510 ft | 140 kts | 39° |
| 2026-04-24 14:46 | -30.07629 | -51.41360 | 4335 ft | 139 kts | 18° |
| 2026-04-24 14:46 | -30.06729 | -51.40974 | 4198 ft | 137 kts | 22° |
| 2026-04-24 14:46 | -30.05845 | -51.40559 | 4014 ft | 138 kts | 22° |
| 2026-04-24 14:47 | -30.04967 | -51.40138 | 3862 ft | 136 kts | 22° |
| 2026-04-24 14:47 | -30.04087 | -51.39734 | 3672 ft | 136 kts | 22° |
| 2026-04-24 14:47 | -30.03199 | -51.39348 | 3485 ft | 137 kts | 20° |
| 2026-04-24 14:47 | -30.02315 | -51.38969 | 3326 ft | 135 kts | 21° |
| 2026-04-24 14:48 | -30.01434 | -51.38565 | 3155 ft | 140 kts | 21° |
| 2026-04-24 14:48 | -30.00540 | -51.38184 | 3005 ft | 138 kts | 24° |
| 2026-04-24 14:48 | -29.99719 | -51.37593 | 2833 ft | 140 kts | 44° |
| 2026-04-24 14:48 | -29.99214 | -51.36643 | 2636 ft | 141 kts | 74° |
| 2026-04-24 14:49 | -29.99132 | -51.35544 | 2493 ft | 138 kts | 88° |
| 2026-04-24 14:49 | -29.99170 | -51.34440 | 2353 ft | 139 kts | 92° |
| 2026-04-24 14:49 | -29.99199 | -51.33346 | 2251 ft | 130 kts | 89° |
| 2026-04-24 14:49 | -29.99182 | -51.32365 | 2215 ft | 113 kts | 88° |
| 2026-04-24 14:50 | -29.99169 | -51.31575 | 2419 ft | 84 kts | 87° |
| 2026-04-24 14:50 | -29.99169 | -51.30917 | 2366 ft | 82 kts | 87° |
| 2026-04-24 14:50 | -29.99172 | -51.30285 | 2340 ft | 80 kts | 88° |
| 2026-04-24 14:50 | -29.99182 | -51.29637 | 2272 ft | 77 kts | 89° |
| 2026-04-24 14:51 | -29.99204 | -51.28994 | 2159 ft | 86 kts | 88° |
| 2026-04-24 14:51 | -29.99245 | -51.28327 | 2055 ft | 82 kts | 90° |
| 2026-04-24 14:51 | -29.99247 | -51.27665 | 1923 ft | 81 kts | 92° |
| 2026-04-24 14:51 | -29.99196 | -51.27039 | 1838 ft | 77 kts | 94° |
| 2026-04-24 14:52 | -29.99342 | -51.26432 | 1714 ft | 76 kts | 107° |
| 2026-04-24 14:52 | -29.99422 | -51.25819 | 1513 ft | 82 kts | 83° |
| 2026-04-24 14:52 | -29.99335 | -51.25188 | 1305 ft | 76 kts | 85° |
| 2026-04-24 14:52 | -29.99321 | -51.24608 | 1125 ft | 74 kts | 99° |
| 2026-04-24 14:53 | -29.99421 | -51.24048 | 973 ft | 70 kts | 93° |
| 2026-04-24 14:53 | -29.99384 | -51.23506 | 858 ft | 67 kts | 89° |
| 2026-04-24 14:53 | -29.99387 | -51.22984 | 743 ft | 66 kts | 97° |
| 2026-04-24 14:53 | -29.99457 | -51.22462 | 584 ft | 66 kts | 97° |
| 2026-04-24 14:54 | -29.99483 | -51.21949 | 562 ft | 63 kts | 88° |
| 2026-04-24 14:54 | -29.99374 | -51.21454 | 570 ft | 66 kts | 77° |
| 2026-04-24 14:54 | -29.99335 | -51.20938 | 561 ft | 64 kts | 97° |
| 2026-04-24 14:54 | -29.99387 | -51.20412 | 492 ft | 69 kts | 96° |
| 2026-04-24 14:55 | -29.99404 | -51.20034 | 423 ft | 72 kts | 91° |
| 2026-04-24 14:55 | -29.99424 | -51.19304 | 271 ft | 65 kts | 91° |
| 2026-04-24 14:55 | -29.99423 | -51.18766 | 170 ft | 68 kts | 94° |
| 2026-04-24 14:55 | -29.99438 | -51.18231 | 59 ft | 65 kts | 92° |
| 2026-04-24 14:56 | -29.99447 | -51.17756 | 11 ft | 47 kts | 94° |
| 2026-04-24 14:56 | -29.99452 | -51.17471 | 8 ft | 28 kts | 91° |
| 2026-04-24 14:56 | -29.99459 | -51.17292 | 7 ft | 18 kts | 91° |
| 2026-04-24 14:56 | -29.99458 | -51.17142 | 7 ft | 20 kts | 91° |
| 2026-04-24 14:57 | -29.99461 | -51.16972 | 5 ft | 22 kts | 91° |
| 2026-04-24 14:57 | -29.99460 | -51.16811 | 7 ft | 15 kts | 74° |
| 2026-04-24 14:57 | -29.99406 | -51.16747 | 8 ft | 10 kts | 9° |
| 2026-04-24 14:57 | -29.99326 | -51.16741 | 8 ft | 11 kts | 358° |
| 2026-04-24 14:58 | -29.99279 | -51.16800 | 8 ft | 12 kts | 275° |
| 2026-04-24 14:58 | -29.99277 | -51.16910 | 8 ft | 15 kts | 271° |
| 2026-04-24 14:58 | -29.99274 | -51.17040 | 8 ft | 17 kts | 270° |
| 2026-04-24 14:58 | -29.99272 | -51.17190 | 8 ft | 19 kts | 272° |
| 2026-04-24 14:59 | -29.99270 | -51.17287 | 8 ft | 0 kts | 271° |
| 2026-04-24 15:01 | -29.99270 | -51.17299 | 8 ft | 6 kts | 271° |
| 2026-04-24 15:01 | -29.99268 | -51.17353 | 8 ft | 7 kts | 271° |
| 2026-04-24 15:02 | -29.99267 | -51.17447 | 8 ft | 14 kts | 271° |
| 2026-04-24 15:02 | -29.99266 | -51.17557 | 8 ft | 13 kts | 270° |
| 2026-04-24 15:02 | -29.99272 | -51.17684 | 8 ft | 16 kts | 233° |
| 2026-04-24 15:02 | -29.99369 | -51.17705 | 9 ft | 12 kts | 180° |
| 2026-04-24 15:03 | -29.99420 | -51.17705 | 10 ft | 12 kts | 181° |
| 2026-04-24 15:03 | -29.99550 | -51.17708 | 9 ft | 10 kts | 182° |
| 2026-04-24 15:03 | -29.99622 | -51.17711 | 8 ft | 10 kts | 181° |
| 2026-04-24 15:03 | -29.99686 | -51.17710 | 8 ft | 8 kts | 168° |
| 2026-04-24 15:04 | -29.99695 | -51.17663 | 8 ft | 7 kts | 89° |
| 2026-04-24 15:04 | -29.99674 | -51.17649 | 8 ft | 3 kts | 358° |
| 2026-04-24 15:04 | -29.99669 | -51.17650 | 8 ft | 0 kts | 355° |